Time;durP1;ratioP1;P1;durP2;ratioP2;P2;SDS_P1;SDS_P2;PMS_P1;PMS_P2;Temp;Humidity;BMP_temperature;BMP_pressure;BME280_temperature;BME280_humidity;BME280_pressure;Samples;Min_cycle;Max_cycle;Signal;HPM_P1;HPM_P2
2022/09/17 00:00:31;;;;;;;2.45;0.98;;;;;;;9.01;100.00;99392.56;12211308;19;20010;-79
2022/09/17 00:04:33;;;;;;;2.70;1.05;;;;;;;8.99;100.00;99400.22;12213084;19;20042;-78
2022/09/17 00:08:38;;;;;;;2.65;1.10;;;;;;;8.99;100.00;99394.72;12191499;19;20010;-78
2022/09/17 00:12:40;;;;;;;4.93;1.10;;;;;;;8.96;100.00;99405.38;12212611;19;20060;-80
2022/09/17 00:16:45;;;;;;;5.45;0.90;;;;;;;8.93;100.00;99403.16;12209426;19;20021;-77
2022/09/17 00:20:47;;;;;;;2.85;1.17;;;;;;;8.93;100.00;99405.88;12186712;19;20341;-77
2022/09/17 00:24:48;;;;;;;3.58;1.23;;;;;;;8.90;100.00;99399.81;12206679;19;20006;-77
2022/09/17 00:28:54;;;;;;;5.00;1.35;;;;;;;8.91;100.00;99397.88;12208471;19;20003;-76
2022/09/17 00:32:58;;;;;;;2.80;1.45;;;;;;;8.87;100.00;99402.22;12183629;19;20543;-77
2022/09/17 00:37:00;;;;;;;4.13;1.00;;;;;;;8.86;100.00;99401.41;12207267;19;20407;-77
2022/09/17 00:41:03;;;;;;;3.50;1.00;;;;;;;8.83;100.00;99406.53;12180096;19;20804;-76
2022/09/17 00:45:05;;;;;;;5.07;1.23;;;;;;;8.82;100.00;99397.47;12205089;19;20034;-76
2022/09/17 00:49:13;;;;;;;3.00;1.30;;;;;;;8.82;100.00;99404.88;12205399;19;20026;-77
2022/09/17 00:53:18;;;;;;;2.53;1.00;;;;;;;8.84;100.00;99409.03;12183395;19;20002;-76
2022/09/17 00:57:20;;;;;;;3.17;1.25;;;;;;;8.85;100.00;99407.94;12205367;19;20002;-76
2022/09/17 01:01:22;;;;;;;2.00;1.27;;;;;;;8.84;100.00;99414.53;12198097;19;20010;-77
2022/09/17 01:05:37;;;;;;;6.30;1.55;;;;;;;8.79;100.00;99421.84;12181866;19;20375;-77
2022/09/17 01:10:04;;;;;;;2.65;1.25;;;;;;;8.75;100.00;99412.44;12202537;19;20041;-76
2022/09/17 01:14:21;;;;;;;5.50;1.42;;;;;;;8.70;100.00;99418.66;12181262;19;20095;-76
2022/09/17 01:18:23;;;;;;;1.83;1.00;;;;;;;8.63;100.00;99416.09;12197477;19;20018;-76
2022/09/17 01:22:37;;;;;;;1.98;1.17;;;;;;;8.62;100.00;99422.63;12202596;19;20014;-76
2022/09/17 01:26:53;;;;;;;3.28;1.40;;;;;;;8.57;100.00;99419.81;12180035;19;20022;-76
2022/09/17 01:31:33;;;;;;;3.25;1.35;;;;;;;8.57;100.00;99430.81;12205138;19;20018;-76
2022/09/17 01:36:03;;;;;;;3.53;1.35;;;;;;;8.61;100.00;99440.22;12178864;19;20006;-77
2022/09/17 01:40:23;;;;;;;6.63;1.70;;;;;;;8.72;100.00;99440.41;12205381;19;20648;-77
2022/09/17 01:44:35;;;;;;;5.40;1.38;;;;;;;8.84;100.00;99438.44;12181717;19;20018;-76
2022/09/17 01:48:45;;;;;;;5.63;1.58;;;;;;;8.92;100.00;99448.16;12202945;19;20014;-77
2022/09/17 01:52:49;;;;;;;7.60;1.40;;;;;;;9.03;100.00;99445.34;12203817;19;20038;-76
2022/09/17 01:56:57;;;;;;;5.28;1.88;;;;;;;9.18;100.00;99446.69;12181953;19;20015;-76
2022/09/17 02:01:02;;;;;;;5.88;1.35;;;;;;;9.31;100.00;99441.72;12203094;19;20006;-76
2022/09/17 02:05:10;;;;;;;3.78;1.50;;;;;;;9.34;100.00;99440.38;12180388;19;20464;-76
2022/09/17 02:09:21;;;;;;;6.10;1.25;;;;;;;9.39;100.00;99440.44;12201570;19;20027;-76
2022/09/17 02:13:31;;;;;;;3.50;1.20;;;;;;;9.50;100.00;99434.00;12200629;19;20034;-76
2022/09/17 02:17:43;;;;;;;4.50;1.30;;;;;;;9.57;100.00;99428.34;12176320;19;20006;-75
2022/09/17 02:21:56;;;;;;;5.40;1.38;;;;;;;9.65;100.00;99436.16;12196450;19;20006;-75
2022/09/17 02:26:14;;;;;;;4.53;1.27;;;;;;;9.78;100.00;99445.97;12195418;19;20006;-76
2022/09/17 02:30:16;;;;;;;3.45;1.38;;;;;;;9.82;100.00;99441.63;12213354;19;20234;-75
2022/09/17 02:34:19;;;;;;;8.40;1.60;;;;;;;9.83;100.00;99443.28;12211021;19;20487;-76
2022/09/17 02:38:21;;;;;;;;;;;;;;;9.80;100.00;99441.03;12194123;19;20735;-76
2022/09/17 02:42:44;;;;;;;3.85;1.38;;;;;;;9.82;100.00;99442.47;12211672;19;19946;-75
2022/09/17 02:47:07;;;;;;;5.50;1.30;;;;;;;9.79;100.00;99436.66;12213071;19;20030;-76
2022/09/17 02:51:50;;;;;;;4.72;1.35;;;;;;;9.88;100.00;99435.13;12190646;19;20407;-76
2022/09/17 02:56:24;;;;;;;5.18;1.73;;;;;;;9.92;100.00;99430.75;12220332;19;20022;-78
2022/09/17 03:00:27;;;;;;;6.75;1.90;;;;;;;9.94;100.00;99436.03;12222185;19;20018;-76
2022/09/17 03:04:30;;;;;;;5.72;1.35;;;;;;;9.97;100.00;99425.31;12214666;19;20101;-76
2022/09/17 03:08:36;;;;;;;7.07;1.60;;;;;;;9.96;100.00;99425.56;12198955;19;20029;-76
2022/09/17 03:12:39;;;;;;;3.42;1.10;;;;;;;10.01;100.00;99433.91;12219634;19;20115;-79
2022/09/17 03:16:41;;;;;;;4.30;1.65;;;;;;;10.04;100.00;99431.47;12211366;19;20037;-76
2022/09/17 03:20:42;;;;;;;5.20;1.70;;;;;;;10.07;100.00;99432.06;12189962;19;20138;-76
2022/09/17 03:24:44;;;;;;;3.83;1.65;;;;;;;10.11;100.00;99430.44;12213072;19;20038;-76
2022/09/17 03:28:46;;;;;;;5.93;1.85;;;;;;;10.10;100.00;99437.88;12211227;19;20022;-77
2022/09/17 03:32:47;;;;;;;3.58;1.88;;;;;;;10.13;100.00;99439.28;12191313;19;20011;-77
2022/09/17 03:36:49;;;;;;;4.75;1.30;;;;;;;10.21;100.00;99436.09;12212834;19;20106;-76
2022/09/17 03:41:06;;;;;;;10.50;2.47;;;;;;;10.23;100.00;99437.50;12214313;19;20021;-78
2022/09/17 03:45:08;;;;;;;5.18;2.08;;;;;;;10.25;100.00;99442.72;12193116;19;20011;-79
2022/09/17 03:49:10;;;;;;;3.28;1.80;;;;;;;10.24;100.00;99444.66;12215375;19;20356;-79
2022/09/17 03:53:11;;;;;;;4.30;2.10;;;;;;;10.27;100.00;99448.84;12190662;19;20138;-79
2022/09/17 03:57:13;;;;;;;6.55;1.73;;;;;;;10.26;100.00;99459.03;12217155;19;20344;-78
2022/09/17 04:01:15;;;;;;;6.15;2.10;;;;;;;10.26;100.00;99455.41;12209934;19;20013;-79
2022/09/17 04:05:16;;;;;;;5.75;2.92;;;;;;;10.26;100.00;99458.16;12185476;19;20019;-77
2022/09/17 04:09:19;;;;;;;11.40;2.10;;;;;;;10.30;100.00;99464.03;12211477;19;20011;-78
2022/09/17 04:13:20;;;;;;;6.05;1.98;;;;;;;10.29;100.00;99459.59;12213368;19;20041;-77
2022/09/17 04:17:22;;;;;;;8.75;2.10;;;;;;;10.30;100.00;99458.53;12189317;19;20014;-77
2022/09/17 04:21:23;;;;;;;6.97;2.40;;;;;;;10.31;100.00;99462.94;12207694;19;20011;-77
2022/09/17 04:25:25;;;;;;;5.97;2.13;;;;;;;10.24;100.00;99463.94;12208348;19;20014;-77
2022/09/17 04:29:27;;;;;;;3.80;1.92;;;;;;;10.25;100.00;99457.34;12185146;19;20400;-77
2022/09/17 04:33:28;;;;;;;7.05;2.58;;;;;;;10.30;100.00;99462.13;12206526;19;20007;-77
2022/09/17 04:37:30;;;;;;;6.70;1.67;;;;;;;10.30;100.00;99456.59;12210035;19;20034;-78
2022/09/17 04:41:32;;;;;;;8.70;2.20;;;;;;;10.30;100.00;99462.13;12186668;19;20003;-78
2022/09/17 04:45:33;;;;;;;8.32;2.25;;;;;;;10.27;100.00;99466.22;12205204;19;20364;-78
2022/09/17 04:49:35;;;;;;;10.35;2.55;;;;;;;10.30;100.00;99478.63;12209044;19;20038;-78
2022/09/17 04:53:37;;;;;;;3.38;1.95;;;;;;;10.31;100.00;99483.03;12200991;19;20026;-79
2022/09/17 04:57:44;;;;;;;9.15;3.42;;;;;;;10.30;100.00;99483.31;12228074;19;20011;-80
2022/09/17 05:01:45;;;;;;;6.30;2.20;;;;;;;10.27;100.00;99481.91;12227813;19;20006;-81
2022/09/17 05:05:47;;;;;;;6.78;2.22;;;;;;;10.24;100.00;99494.22;12206870;19;20011;-82
2022/09/17 05:09:49;;;;;;;11.05;2.90;;;;;;;10.24;100.00;99501.66;12226280;19;20310;-83
2022/09/17 05:13:50;;;;;;;12.23;2.47;;;;;;;10.23;100.00;99508.22;12228321;19;20459;-84
2022/09/17 05:17:52;;;;;;;6.63;2.15;;;;;;;10.20;100.00;99504.09;12208676;19;20030;-84
2022/09/17 05:21:54;;;;;;;6.47;2.75;;;;;;;10.21;100.00;99507.69;12226593;19;20014;-84
2022/09/17 05:25:59;;;;;;;6.03;2.35;;;;;;;10.20;100.00;99512.34;12226870;19;20044;-84
2022/09/17 05:30:01;;;;;;;5.00;2.45;;;;;;;10.20;100.00;99508.75;12202867;19;20053;-83
2022/09/17 05:34:04;;;;;;;8.98;2.90;;;;;;;10.16;100.00;99505.69;12222663;19;20581;-85
2022/09/17 05:38:06;;;;;;;12.60;2.53;;;;;;;10.15;100.00;99508.69;12202325;19;20467;-83
2022/09/17 05:42:08;;;;;;;4.45;2.53;;;;;;;10.15;100.00;99509.53;12225343;19;20014;-83
2022/09/17 05:46:10;;;;;;;10.95;2.53;;;;;;;10.19;100.00;99507.91;12225346;19;20010;-83
2022/09/17 05:50:11;;;;;;;13.50;3.03;;;;;;;10.21;100.00;99516.78;12213920;19;20332;-82
2022/09/17 05:54:13;;;;;;;12.45;3.25;;;;;;;10.23;100.00;99522.88;12230257;19;20006;-83
2022/09/17 05:58:17;;;;;;;9.25;4.28;;;;;;;10.32;100.00;99522.44;12246865;19;20019;-82
2022/09/17 06:02:19;;;;;;;5.13;2.63;;;;;;;10.45;100.00;99524.81;12233317;19;20015;-82
2022/09/17 06:06:20;;;;;;;7.28;2.70;;;;;;;10.60;100.00;99525.00;12250577;19;20010;-81
2022/09/17 06:10:22;;;;;;;8.52;2.55;;;;;;;10.71;100.00;99528.72;12247647;19;20038;-82
2022/09/17 06:14:24;;;;;;;7.57;2.40;;;;;;;10.77;100.00;99527.69;12180192;19;20006;-82
2022/09/17 06:18:27;;;;;;;6.63;2.30;;;;;;;10.78;100.00;99532.09;12227438;19;20014;-83
2022/09/17 06:22:30;;;;;;;5.38;2.50;;;;;;;10.86;100.00;99533.59;12226053;19;20025;-82
2022/09/17 06:26:31;;;;;;;9.57;2.30;;;;;;;10.95;100.00;99538.38;12199793;19;20328;-82
2022/09/17 06:30:38;;;;;;;6.60;2.63;;;;;;;11.01;100.00;99531.00;12234950;19;20078;-82
2022/09/17 06:34:40;;;;;;;9.57;2.75;;;;;;;11.15;100.00;99535.00;12234918;19;20022;-85
2022/09/17 06:38:42;;;;;;;10.50;2.63;;;;;;;11.12;100.00;99538.28;12226371;19;20014;-81
2022/09/17 06:42:44;;;;;;;7.53;3.10;;;;;;;11.06;100.00;99549.50;12226341;19;20021;-83
2022/09/17 06:46:48;;;;;;;8.70;2.90;;;;;;;10.95;100.00;99546.63;12226043;19;20039;-82
2022/09/17 06:50:53;;;;;;;4.93;2.13;;;;;;;10.92;100.00;99544.41;12202286;19;20834;-82
2022/09/17 06:54:55;;;;;;;5.68;2.55;;;;;;;11.12;100.00;99545.69;12223502;19;20006;-83
2022/09/17 06:58:57;;;;;;;6.83;2.63;;;;;;;11.27;100.00;99556.88;12215259;19;20459;-82
2022/09/17 07:03:00;;;;;;;5.63;2.35;;;;;;;11.46;100.00;99543.56;12220691;19;20007;-82
2022/09/17 07:07:04;;;;;;;;;;;;;;;11.62;100.00;99547.28;12216663;19;20106;-82
2022/09/17 07:11:06;;;;;;;6.38;2.25;;;;;;;11.54;100.00;99554.13;12208837;19;19914;-82
2022/09/17 07:15:10;;;;;;;7.07;2.70;;;;;;;11.35;100.00;99552.84;12230546;19;20022;-82
2022/09/17 07:19:11;;;;;;;8.40;2.40;;;;;;;11.29;100.00;99553.88;12228264;19;20022;-82
2022/09/17 07:23:15;;;;;;;6.57;2.20;;;;;;;11.70;100.00;99563.34;12209437;19;20010;-82
2022/09/17 07:27:17;;;;;;;8.48;2.38;;;;;;;11.99;100.00;99558.38;12232201;19;20011;-82
2022/09/17 07:31:18;;;;;;;7.28;2.15;;;;;;;12.35;100.00;99550.31;12235918;19;20138;-82
2022/09/17 07:35:20;;;;;;;10.07;2.40;;;;;;;12.57;100.00;99552.06;12211465;19;20072;-81
2022/09/17 07:39:21;;;;;;;6.53;1.90;;;;;;;12.62;100.00;99558.47;12235562;19;20006;-81
2022/09/17 07:43:28;;;;;;;8.98;2.70;;;;;;;12.53;100.00;99551.78;12237758;19;20042;-83
2022/09/17 07:47:30;;;;;;;7.53;2.55;;;;;;;12.51;100.00;99553.97;12216885;19;20013;-82
2022/09/17 07:51:31;;;;;;;10.50;2.55;;;;;;;12.42;100.00;99548.13;12241127;19;20040;-80
2022/09/17 07:55:33;;;;;;;11.15;2.38;;;;;;;12.42;100.00;99552.81;12239895;19;20566;-80
2022/09/17 07:59:35;;;;;;;7.80;2.35;;;;;;;12.57;100.00;99561.19;12219658;19;20044;-80
2022/09/17 08:03:38;;;;;;;11.23;2.30;;;;;;;12.86;100.00;99552.47;12238110;19;20007;-79
2022/09/17 08:07:41;;;;;;;9.93;2.13;;;;;;;13.20;100.00;99556.41;12233627;19;20013;-79
2022/09/17 08:11:43;;;;;;;11.40;2.38;;;;;;;13.55;100.00;99552.09;12212742;19;20391;-80
2022/09/17 08:16:00;;;;;;;10.20;2.63;;;;;;;14.21;99.20;99558.69;12235265;19;20014;-81
2022/09/17 08:20:02;;;;;;;12.30;2.28;;;;;;;14.26;94.01;99567.00;12207537;19;20007;-80
2022/09/17 08:24:04;;;;;;;8.27;2.58;;;;;;;14.10;93.53;99558.72;12223391;19;20067;-79
2022/09/17 08:28:06;;;;;;;13.63;2.10;;;;;;;14.12;90.79;99561.19;12234646;19;20014;-79
2022/09/17 08:32:07;;;;;;;9.02;2.50;;;;;;;14.05;88.48;99566.22;12207718;19;20006;-80
2022/09/17 08:36:11;;;;;;;11.52;2.58;;;;;;;13.84;89.68;99568.16;12223163;19;20007;-78
2022/09/17 08:40:19;;;;;;;9.30;2.30;;;;;;;14.11;87.03;99563.16;12224925;19;20003;-79
2022/09/17 08:44:45;;;;;;;11.40;2.47;;;;;;;14.33;86.46;99562.81;12196581;19;20341;-78
2022/09/17 08:48:55;;;;;;;10.80;1.85;;;;;;;14.47;84.45;99568.63;12223987;19;20007;-77
2022/09/17 08:53:17;;;;;;;12.00;2.30;;;;;;;14.22;83.61;99572.28;12211255;19;20002;-78
2022/09/17 08:57:37;;;;;;;9.05;2.22;;;;;;;13.83;80.82;99569.25;12223978;19;20387;-79
2022/09/17 09:01:50;;;;;;;9.48;2.53;;;;;;;13.67;84.00;99583.09;12219155;19;20115;-78
2022/09/17 09:05:52;;;;;;;11.93;2.33;;;;;;;13.73;84.43;99574.81;12192602;19;20007;-80
2022/09/17 09:10:14;;;;;;;7.57;2.17;;;;;;;14.22;82.63;99571.44;12221834;19;20018;-78
2022/09/17 09:14:25;;;;;;;11.07;2.47;;;;;;;14.70;79.83;99561.66;12197208;19;20020;-79
2022/09/17 09:18:32;;;;;;;10.55;2.20;;;;;;;14.69;80.13;99561.91;12217539;19;20115;-77
2022/09/17 09:22:56;;;;;;;8.65;1.90;;;;;;;14.48;79.94;99559.16;12211894;19;20006;-81
2022/09/17 09:27:22;;;;;;;6.65;1.60;;;;;;;14.58;78.28;99563.91;12194910;19;20006;-77
2022/09/17 09:31:47;;;;;;;6.57;2.22;;;;;;;15.02;72.53;99561.22;12215483;19;20111;-80
2022/09/17 09:35:49;;;;;;;10.25;2.50;;;;;;;15.30;70.58;99571.91;12194766;19;20498;-83
2022/09/17 09:39:53;;;;;;;8.68;1.70;;;;;;;15.59;71.86;99555.31;12218364;19;20014;-79
2022/09/17 09:44:09;;;;;;;7.15;2.20;;;;;;;15.69;69.68;99553.31;12220502;19;20007;-81
2022/09/17 09:48:28;;;;;;;8.27;1.98;;;;;;;15.87;69.24;99562.88;12199451;19;20006;-80
2022/09/17 09:52:50;;;;;;;6.78;1.38;;;;;;;16.38;67.52;99562.38;12220211;19;20395;-81
2022/09/17 09:56:57;;;;;;;9.40;1.90;;;;;;;17.07;63.93;99556.59;12197955;19;20011;-79
2022/09/17 10:00:58;;;;;;;6.20;1.73;;;;;;;17.45;61.92;99551.88;12217729;19;20010;-81
2022/09/17 10:05:10;;;;;;;10.10;1.60;;;;;;;17.45;60.62;99542.69;12197001;19;20011;-82
2022/09/17 10:09:15;;;;;;;4.50;1.70;;;;;;;17.17;61.30;99553.69;12218990;19;20047;-82
2022/09/17 10:13:19;;;;;;;5.18;1.60;;;;;;;16.70;60.24;99560.94;12213910;19;20006;-78
2022/09/17 10:17:23;;;;;;;6.55;1.40;;;;;;;16.13;61.29;99601.59;12193932;19;20014;-80
2022/09/17 10:21:32;;;;;;;11.55;2.10;;;;;;;13.65;89.05;99626.00;12217975;19;20013;-83
2022/09/17 10:25:34;;;;;;;13.25;3.10;;;;;;;12.16;99.99;99620.91;12216691;19;20029;-78
2022/09/17 10:29:35;;;;;;;6.32;2.35;;;;;;;11.48;100.00;99609.50;12205275;19;20040;-80
2022/09/17 10:33:50;;;;;;;12.68;3.58;;;;;;;11.45;100.00;99602.59;12218369;19;20006;-82
2022/09/17 10:37:52;;;;;;;10.27;2.75;;;;;;;11.79;100.00;99589.38;12219218;19;20026;-84
2022/09/17 10:42:05;;;;;;;9.40;3.20;;;;;;;12.16;100.00;99587.75;12191234;19;20011;-82
2022/09/17 10:46:21;;;;;;;13.82;2.97;;;;;;;12.48;100.00;99588.50;12229685;19;20700;-80
2022/09/17 10:50:30;;;;;;;9.05;2.42;;;;;;;12.84;100.00;99585.91;12202689;19;20006;-82
2022/09/17 10:54:47;;;;;;;8.02;2.80;;;;;;;13.11;100.00;99584.91;12235715;19;20006;-81
2022/09/17 10:59:02;;;;;;;14.30;2.90;;;;;;;13.43;100.00;99584.75;12238674;19;20325;-81
2022/09/17 11:03:23;;;;;;;12.35;2.60;;;;;;;13.52;100.00;99587.78;12213802;19;20007;-81
2022/09/17 11:07:33;;;;;;;7.82;2.80;;;;;;;13.43;100.00;99593.03;12230933;19;20506;-80
2022/09/17 11:11:48;;;;;;;12.32;3.17;;;;;;;13.45;100.00;99585.31;12211916;19;20002;-82
2022/09/17 11:16:07;;;;;;;16.13;4.38;;;;;;;13.71;100.00;99577.84;12235847;19;20007;-80
2022/09/17 11:20:27;;;;;;;9.50;2.83;;;;;;;13.85;100.00;99580.88;12213090;19;20114;-80
2022/09/17 11:24:36;;;;;;;15.20;2.33;;;;;;;13.98;100.00;99579.50;12229220;19;20443;-81
2022/09/17 11:28:50;;;;;;;7.43;3.15;;;;;;;14.00;100.00;99586.41;12237133;19;20062;-80
2022/09/17 11:32:52;;;;;;;7.90;2.50;;;;;;;14.17;100.00;99574.22;12214476;19;20030;-81
2022/09/17 11:37:12;;;;;;;8.57;1.50;;;;;;;14.25;100.00;99573.66;12230235;19;20293;-81
2022/09/17 11:41:21;;;;;;;9.35;2.15;;;;;;;14.47;100.00;99560.28;12210756;19;20446;-81
2022/09/17 11:45:43;;;;;;;10.98;2.13;;;;;;;14.55;100.00;99556.97;12227938;19;20018;-83
2022/09/17 11:49:56;;;;;;;11.38;1.80;;;;;;;15.02;100.00;99554.81;12229084;19;20011;-82
2022/09/17 11:54:25;;;;;;;15.57;1.75;;;;;;;15.22;100.00;99549.16;12197085;19;20074;-83
2022/09/17 11:58:46;;;;;;;9.48;1.63;;;;;;;15.12;100.00;99548.41;12230101;19;20675;-85
2022/09/17 12:02:57;;;;;;;3.25;1.30;;;;;;;14.77;100.00;99542.75;12207816;19;20006;-84
2022/09/17 12:07:09;;;;;;;6.68;1.23;;;;;;;14.53;100.00;99536.19;12223741;19;20002;-83
2022/09/17 12:11:24;;;;;;;7.78;1.45;;;;;;;14.20;100.00;99534.88;12204055;19;20029;-85
2022/09/17 12:15:31;;;;;;;9.65;1.50;;;;;;;14.38;100.00;99537.03;12229322;19;20014;-84
2022/09/17 12:19:46;;;;;;;7.38;1.25;;;;;;;15.68;100.00;99523.06;12234171;19;20018;-84
2022/09/17 12:23:58;;;;;;;8.25;1.40;;;;;;;16.58;92.90;99510.44;12204950;19;20014;-82
2022/09/17 12:28:15;;;;;;;5.07;1.42;;;;;;;17.28;82.04;99515.34;12225297;19;20033;-83
2022/09/17 12:32:32;;;;;;;9.38;1.80;;;;;;;18.59;82.14;99507.78;12205416;19;20002;-83
2022/09/17 12:37:05;;;;;;;7.88;1.40;;;;;;;19.40;67.25;99500.72;12222149;19;20023;-82
2022/09/17 12:41:38;;;;;;;6.47;1.40;;;;;;;19.29;65.45;99500.13;12194807;19;20043;-85
2022/09/17 12:46:18;;;;;;;6.30;1.33;;;;;;;19.76;59.34;99500.69;12220811;19;20007;-82
2022/09/17 12:50:40;;;;;;;5.90;1.17;;;;;;;19.71;57.68;99492.44;12197257;19;20390;-80
2022/09/17 12:54:41;;;;;;;4.47;0.80;;;;;;;18.94;59.19;99485.00;12216861;19;20022;-81
2022/09/17 12:59:01;;;;;;;7.30;1.48;;;;;;;20.07;57.93;99485.91;12217233;19;20018;-79
2022/09/17 13:03:14;;;;;;;5.97;0.90;;;;;;;20.65;57.21;99476.47;12188166;19;20049;-82
2022/09/17 13:08:09;;;;;;;8.40;1.05;;;;;;;19.94;53.15;99474.50;12214044;19;20733;-81
2022/09/17 13:12:16;;;;;;;4.90;0.80;;;;;;;19.30;55.32;99482.22;12190846;19;20026;-79
2022/09/17 13:16:32;;;;;;;5.07;0.98;;;;;;;18.41;54.28;99472.41;12214974;19;20006;-81
2022/09/17 13:20:52;;;;;;;4.18;0.73;;;;;;;17.49;55.84;99463.78;12193567;19;20443;-81
2022/09/17 13:25:06;;;;;;;5.45;0.95;;;;;;;17.03;55.92;99466.47;12213375;19;20006;-82
2022/09/17 13:29:09;;;;;;;3.03;0.82;;;;;;;16.66;56.72;99462.50;12195710;19;20437;-80
2022/09/17 13:33:12;;;;;;;5.13;1.00;;;;;;;16.70;57.63;99462.72;12232262;19;20007;-78
2022/09/17 13:37:18;;;;;;;2.50;0.70;;;;;;;17.23;56.30;99463.38;12222208;19;20414;-82
2022/09/17 13:41:23;;;;;;;3.00;0.82;;;;;;;18.17;55.51;99451.16;12196459;19;20006;-82
2022/09/17 13:45:25;;;;;;;2.83;1.23;;;;;;;18.75;53.47;99448.88;12216372;19;20011;-79
2022/09/17 13:49:30;;;;;;;4.47;0.65;;;;;;;18.05;54.00;99467.53;12221118;19;20010;-80
2022/09/17 13:53:33;;;;;;;5.13;1.02;;;;;;;16.63;68.59;99496.50;12204294;19;20032;-84
2022/09/17 13:57:45;;;;;;;;;;;;;;;14.77;78.40;99505.88;12228576;19;20050;-81
2022/09/17 14:02:12;;;;;;;5.53;1.15;;;;;;;14.07;85.45;99495.56;12227862;19;19934;-83
2022/09/17 14:06:14;;;;;;;3.47;1.00;;;;;;;13.76;85.23;99483.69;12196879;19;20018;-82
2022/09/17 14:10:15;;;;;;;3.85;0.80;;;;;;;13.38;88.97;99496.16;12228804;19;20467;-80
2022/09/17 14:14:26;;;;;;;5.25;1.00;;;;;;;13.11;90.57;99491.66;12197131;19;20764;-82
2022/09/17 14:18:27;;;;;;;2.53;0.82;;;;;;;13.18;89.60;99503.31;12227689;19;20003;-82
2022/09/17 14:22:29;;;;;;;3.63;0.60;;;;;;;13.33;89.14;99491.47;12263557;19;20409;-82
2022/09/17 14:26:40;;;;;;;10.27;1.00;;;;;;;13.65;89.24;99488.44;12243092;19;20035;-81
2022/09/17 14:30:43;;;;;;;2.88;0.85;;;;;;;14.41;86.94;99494.06;12264592;19;20341;-82
2022/09/17 14:34:44;;;;;;;2.28;1.05;;;;;;;15.50;78.76;99497.63;12265256;19;20049;-82
2022/09/17 14:38:53;;;;;;;3.70;1.15;;;;;;;16.52;77.05;99497.72;12232668;19;20047;-82
2022/09/17 14:43:00;;;;;;;6.72;1.20;;;;;;;17.41;69.79;99489.53;12235591;19;20021;-83
2022/09/17 14:47:07;;;;;;;3.33;0.70;;;;;;;17.65;67.69;99488.59;12236122;19;20029;-84
2022/09/17 14:51:24;;;;;;;1.90;0.50;;;;;;;17.68;66.93;99502.75;12214765;19;20015;-82
2022/09/17 14:55:29;;;;;;;1.13;0.40;;;;;;;17.43;65.65;99503.16;12234442;19;20015;-82
2022/09/17 14:59:40;;;;;;;2.80;0.47;;;;;;;17.33;63.69;99492.19;12212937;19;20065;-83
2022/09/17 15:03:42;;;;;;;2.85;0.60;;;;;;;17.47;64.30;99495.88;12233423;19;20078;-83
2022/09/17 15:07:45;;;;;;;1.75;0.40;;;;;;;17.05;64.14;99486.50;12232039;19;20011;-81
2022/09/17 15:11:47;;;;;;;;;;;;;;;16.60;64.94;99497.91;12213011;19;20010;-81
2022/09/17 15:15:52;;;;;;;0.93;0.38;;;;;;;16.21;65.68;99511.16;12243527;19;19914;-84
2022/09/17 15:19:57;;;;;;;1.65;0.50;;;;;;;15.85;66.64;99506.78;12262713;19;20042;-82
2022/09/17 15:24:13;;;;;;;2.15;0.50;;;;;;;15.80;67.09;99495.72;12244389;19;20007;-82
2022/09/17 15:28:33;;;;;;;0.75;0.45;;;;;;;15.78;68.54;99509.06;12257894;19;20043;-85
2022/09/17 15:32:37;;;;;;;1.60;0.50;;;;;;;15.53;67.63;99506.47;12220708;19;20006;-83
2022/09/17 15:36:39;;;;;;;3.25;0.50;;;;;;;15.33;68.37;99508.28;12233218;19;20013;-82
2022/09/17 15:40:41;;;;;;;2.53;0.88;;;;;;;15.19;69.63;99519.19;12235035;19;20094;-81
2022/09/17 15:44:42;;;;;;;2.13;0.70;;;;;;;15.03;70.12;99524.03;12211297;19;20411;-82
2022/09/17 15:48:44;;;;;;;2.55;0.70;;;;;;;14.87;69.84;99518.84;12230800;19;20013;-81
2022/09/17 15:52:46;;;;;;;2.45;0.50;;;;;;;14.90;70.85;99527.44;12234459;19;20006;-82
2022/09/17 15:56:55;;;;;;;2.63;0.60;;;;;;;14.78;71.32;99513.06;12209536;19;20126;-83
2022/09/17 16:01:15;;;;;;;1.85;0.60;;;;;;;14.46;74.95;99522.59;12230206;19;20002;-81
2022/09/17 16:05:17;;;;;;;0.90;0.52;;;;;;;14.27;75.08;99521.53;12204312;19;20014;-83
2022/09/17 16:09:55;;;;;;;1.75;0.88;;;;;;;14.06;77.30;99529.91;12228353;19;20011;-82
2022/09/17 16:13:59;;;;;;;3.83;0.90;;;;;;;13.90;77.74;99526.31;12225966;19;20006;-81
2022/09/17 16:18:01;;;;;;;3.88;0.75;;;;;;;13.78;78.93;99525.78;12205796;19;20010;-82
2022/09/17 16:22:02;;;;;;;4.53;1.10;;;;;;;13.71;80.12;99529.94;12228129;19;20398;-81
2022/09/17 16:26:08;;;;;;;2.22;0.60;;;;;;;13.73;81.31;99528.56;12208945;19;20010;-82
2022/09/17 16:30:14;;;;;;;2.72;0.70;;;;;;;13.74;81.49;99532.16;12227734;19;20007;-81
2022/09/17 16:34:15;;;;;;;6.28;0.77;;;;;;;13.73;81.68;99541.56;12226647;19;20007;-82
2022/09/17 16:38:17;;;;;;;3.38;0.68;;;;;;;13.74;82.45;99534.91;12201291;19;20010;-82
2022/09/17 16:42:19;;;;;;;3.15;0.90;;;;;;;13.72;81.51;99534.38;12223843;19;20040;-80
2022/09/17 16:46:20;;;;;;;3.80;1.25;;;;;;;13.54;81.50;99542.13;12223254;19;20006;-81
2022/09/17 16:50:22;;;;;;;5.35;0.73;;;;;;;13.43;82.12;99551.53;12205570;19;20030;-82
2022/09/17 16:54:24;;;;;;;2.77;0.60;;;;;;;13.44;82.53;99559.56;12223946;19;20003;-81
2022/09/17 16:58:26;;;;;;;5.93;0.80;;;;;;;13.52;82.58;99574.78;12223635;19;20011;-80
2022/09/17 17:02:27;;;;;;;2.55;0.68;;;;;;;13.51;81.75;99567.59;12201468;19;20074;-81
2022/09/17 17:06:29;;;;;;;3.53;0.85;;;;;;;13.37;82.29;99583.06;12220648;19;20007;-80
2022/09/17 17:10:31;;;;;;;3.17;1.00;;;;;;;13.16;83.55;99582.97;12228830;19;20014;-82
2022/09/17 17:14:32;;;;;;;1.45;0.50;;;;;;;13.06;83.76;99587.66;12201932;19;20019;-80
2022/09/17 17:18:36;;;;;;;1.90;0.60;;;;;;;13.05;84.31;99586.81;12223906;19;20071;-79
2022/09/17 17:22:39;;;;;;;3.40;0.97;;;;;;;12.98;84.86;99584.31;12235478;19;20014;-83
2022/09/17 17:26:41;;;;;;;2.60;0.50;;;;;;;12.83;85.50;99578.72;12207842;19;20582;-82
2022/09/17 17:30:46;;;;;;;2.58;0.88;;;;;;;12.71;85.74;99576.19;12223062;19;20368;-81
2022/09/17 17:34:49;;;;;;;1.75;0.60;;;;;;;12.54;86.12;99581.91;12223337;19;20071;-82
2022/09/17 17:38:55;;;;;;;1.52;0.80;;;;;;;12.46;86.51;99595.41;12203771;19;20011;-82
2022/09/17 17:42:57;;;;;;;2.33;0.50;;;;;;;12.41;86.78;99600.91;12224748;19;20010;-81
2022/09/17 17:46:58;;;;;;;3.50;0.80;;;;;;;12.31;87.27;99610.81;12222344;19;20067;-81
2022/09/17 17:51:05;;;;;;;3.03;0.88;;;;;;;12.24;87.46;99626.75;12200415;19;20010;-81
2022/09/17 17:55:07;;;;;;;2.05;0.80;;;;;;;12.18;87.76;99641.63;12212922;19;20460;-81
2022/09/17 17:59:09;;;;;;;0.80;0.50;;;;;;;11.97;89.33;99648.09;12195574;19;20034;-82
2022/09/17 18:03:10;;;;;;;1.27;0.70;;;;;;;11.57;95.04;99652.94;12218032;19;20029;-80
2022/09/17 18:07:12;;;;;;;1.33;0.70;;;;;;;11.28;100.00;99668.06;12212638;19;20010;-81
2022/09/17 18:11:14;;;;;;;1.92;0.82;;;;;;;11.07;100.00;99643.00;12203966;19;20006;-82
2022/09/17 18:15:16;;;;;;;1.13;0.52;;;;;;;10.86;100.00;99617.09;12222265;19;20511;-81
2022/09/17 18:19:17;;;;;;;2.95;0.80;;;;;;;10.74;100.00;99643.97;12223077;19;20010;-81
2022/09/17 18:23:19;;;;;;;4.68;0.90;;;;;;;10.59;100.00;99643.72;12199735;19;20483;-83
2022/09/17 18:27:21;;;;;;;2.03;1.00;;;;;;;10.59;100.00;99655.59;12222808;19;20018;-80
2022/09/17 18:31:28;;;;;;;3.05;0.98;;;;;;;10.58;100.00;99659.44;12225200;19;20439;-81
2022/09/17 18:35:34;;;;;;;1.73;1.10;;;;;;;10.54;100.00;99660.22;12197734;19;20058;-80
2022/09/17 18:39:35;;;;;;;4.35;1.05;;;;;;;10.52;100.00;99651.34;12216509;19;20371;-79
2022/09/17 18:44:01;;;;;;;3.63;1.00;;;;;;;10.55;100.00;99661.88;12215678;19;20132;-79
2022/09/17 18:48:05;;;;;;;1.80;0.63;;;;;;;10.52;100.00;99660.44;12193256;19;20018;-79
2022/09/17 18:52:06;;;;;;;3.63;1.27;;;;;;;10.52;100.00;99671.47;12218344;19;20191;-79
2022/09/17 18:56:18;;;;;;;2.92;1.25;;;;;;;10.51;100.00;99669.81;12193108;19;20461;-79
2022/09/17 19:00:21;;;;;;;4.25;1.52;;;;;;;10.52;100.00;99671.47;12204899;19;20014;-79
2022/09/17 19:04:22;;;;;;;3.78;1.60;;;;;;;10.48;100.00;99679.41;12210977;19;20014;-79